Time;durP1;ratioP1;P1;durP2;ratioP2;P2;SDS_P1;SDS_P2;PMS_P1;PMS_P2;Temp;Humidity;BMP_temperature;BMP_pressure;BME280_temperature;BME280_humidity;BME280_pressure;Samples;Min_cycle;Max_cycle;Signal;HPM_P1;HPM_P2
2023/09/28 00:02:34;;;;;;;7.27;6.50;;;15.00;99.90;;;;;;5024240;28;20478;-79
2023/09/28 00:05:30;;;;;;;7.53;6.83;;;15.00;99.90;;;;;;5021310;28;20506;-79
2023/09/28 00:08:19;;;;;;;12.20;6.30;;;14.90;99.90;;;;;;5017705;28;20459;-79
2023/09/28 00:11:14;;;;;;;7.67;6.90;;;14.90;99.90;;;;;;5021722;28;20447;-79
2023/09/28 00:13:58;;;;;;;7.20;6.60;;;14.90;99.90;;;;;;5028429;28;20521;-80
2023/09/28 00:16:46;;;;;;;7.10;6.50;;;14.90;99.90;;;;;;5032362;28;20482;-79
2023/09/28 00:19:54;;;;;;;9.37;8.00;;;14.80;99.90;;;;;;5030918;28;20479;-79
2023/09/28 00:22:34;;;;;;;8.90;7.50;;;14.80;99.90;;;;;;5029801;28;20514;-78
2023/09/28 00:25:43;;;;;;;8.63;6.87;;;14.80;99.90;;;;;;5031682;28;20488;-78
2023/09/28 00:39:26;;;;;;;8.67;7.67;;;14.70;99.90;;;;;;4805774;29;20453;-80
2023/09/28 00:42:37;;;;;;;8.30;7.60;;;14.60;99.90;;;;;;4839686;29;20452;-79
2023/09/28 00:48:52;;;;;;;7.97;6.93;;;14.60;99.90;;;;;;4993480;28;20463;-79
2023/09/28 01:16:19;;;;;;;8.50;7.87;;;14.50;99.90;;;;;;4834993;29;20557;-78
2023/09/28 01:19:29;;;;;;;9.57;8.77;;;14.40;99.90;;;;;;4922449;29;20456;-79
2023/09/28 01:22:05;;;;;;;8.73;8.03;;;14.60;99.90;;;;;;4869487;29;20592;-79
2023/09/28 01:27:57;;;;;;;8.30;7.70;;;14.40;99.90;;;;;;5013657;28;20433;-79
2023/09/28 01:30:36;;;;;;;8.47;7.73;;;14.50;99.90;;;;;;5017065;28;20444;-80
2023/09/28 01:33:23;;;;;;;8.17;7.47;;;14.40;99.90;;;;;;5016401;28;20519;-78
2023/09/28 01:36:12;;;;;;;8.50;7.80;;;14.40;99.90;;;;;;5015821;28;20498;-79
2023/09/28 01:39:11;;;;;;;7.70;7.10;;;14.40;99.90;;;;;;5007672;28;20505;-79
2023/09/28 02:09:03;;;;;;;7.53;6.83;;;14.30;99.90;;;;;;4885298;29;20461;-79
2023/09/28 03:12:46;;;;;;;;;;;;;;;;;;;;;
2023/09/28 03:46:43;;;;;;;7.53;6.83;;;14.10;99.90;;;;;;4674055;30;20522;-80
2023/09/28 03:49:21;;;;;;;7.07;6.47;;;14.20;99.90;;;;;;4799641;29;20451;-81
2023/09/28 03:52:25;;;;;;;6.37;5.77;;;14.10;99.90;;;;;;4938267;28;20654;-80
2023/09/28 03:55:07;;;;;;;10.10;6.20;;;14.10;99.90;;;;;;4986134;28;20553;-79
2023/09/28 03:57:53;;;;;;;7.43;6.63;;;14.10;99.90;;;;;;4984768;28;20580;-79
2023/09/28 04:00:30;;;;;;;6.80;6.27;;;14.10;99.90;;;;;;4986342;28;20540;-79
2023/09/28 04:03:02;;;;;;;8.77;6.83;;;14.10;99.90;;;;;;4983441;28;20523;-80
2023/09/28 04:05:38;;;;;;;6.10;5.60;;;14.20;99.90;;;;;;4983705;28;20511;-80
2023/09/28 04:08:19;;;;;;;6.60;6.00;;;14.10;99.90;;;;;;4984354;28;20461;-79
2023/09/28 04:11:02;;;;;;;7.73;7.03;;;14.10;99.90;;;;;;4979928;28;20876;-79
2023/09/28 04:21:00;;;;;;;7.00;6.47;;;14.10;99.90;;;;;;4982992;28;20500;-80
2023/09/28 04:26:50;;;;;;;8.03;7.27;;;14.20;99.90;;;;;;4826570;29;20499;-79
2023/09/28 04:29:17;;;;;;;7.73;7.03;;;14.20;99.90;;;;;;4863187;29;20442;-80
2023/09/28 04:31:44;;;;;;;10.17;7.60;;;14.10;99.90;;;;;;4968208;28;20452;-80
2023/09/28 04:34:12;;;;;;;7.70;6.97;;;14.10;99.90;;;;;;4979206;28;20496;-79
2023/09/28 04:36:40;;;;;;;7.90;7.10;;;14.20;99.90;;;;;;4978113;28;20465;-80
2023/09/28 04:39:10;;;;;;;8.50;7.80;;;14.20;99.90;;;;;;4980237;28;20511;-80
2023/09/28 04:41:37;;;;;;;8.97;8.17;;;14.50;99.90;;;;;;4978498;28;20516;-79
2023/09/28 04:44:06;;;;;;;8.27;7.33;;;14.20;99.90;;;;;;4978763;28;20448;-81
2023/09/28 04:46:33;;;;;;;8.20;7.40;;;14.20;99.90;;;;;;4978943;28;20858;-80
2023/09/28 04:49:00;;;;;;;7.67;6.93;;;14.20;99.90;;;;;;4979282;28;20445;-80
2023/09/28 04:51:27;;;;;;;8.20;7.40;;;14.10;99.90;;;;;;4979641;28;20485;-79
2023/09/28 04:53:54;;;;;;;7.53;6.83;;;14.10;99.90;;;;;;4978959;28;20449;-81
2023/09/28 04:56:21;;;;;;;7.00;6.30;;;14.10;99.90;;;;;;4978114;28;20465;-81
2023/09/28 04:58:48;;;;;;;7.80;7.10;;;14.10;99.90;;;;;;4978340;28;20817;-80
2023/09/28 05:01:16;;;;;;;7.80;6.97;;;14.10;99.90;;;;;;4976896;28;20456;-81
2023/09/28 05:03:42;;;;;;;7.03;6.43;;;14.10;99.90;;;;;;4977573;28;20457;-79
2023/09/28 05:06:09;;;;;;;6.77;6.10;;;14.10;99.90;;;;;;4977684;28;20488;-80
2023/09/28 05:08:36;;;;;;;7.40;6.70;;;14.10;99.90;;;;;;4978214;28;20520;-80
2023/09/28 05:11:03;;;;;;;7.97;7.37;;;14.30;99.90;;;;;;4979183;28;20452;-79
2023/09/28 05:13:30;;;;;;;8.63;7.83;;;14.10;99.90;;;;;;4977703;28;20449;-79
2023/09/28 05:15:57;;;;;;;8.87;8.00;;;14.10;99.90;;;;;;4977344;28;20488;-79
2023/09/28 05:18:25;;;;;;;8.40;7.70;;;14.10;99.90;;;;;;4986561;28;20441;-81
2023/09/28 05:20:52;;;;;;;7.47;6.83;;;14.10;99.90;;;;;;4997574;28;20455;-81
2023/09/28 05:23:18;;;;;;;8.70;8.00;;;14.20;99.90;;;;;;4997782;28;20452;-84
2023/09/28 05:25:45;;;;;;;8.03;7.23;;;14.20;99.90;;;;;;4997140;28;20487;-83
2023/09/28 05:28:12;;;;;;;8.40;6.77;;;14.20;99.90;;;;;;4997476;28;20475;-81
2023/09/28 05:30:39;;;;;;;7.57;6.97;;;14.60;99.90;;;;;;4998263;28;20539;-83
2023/09/28 05:33:06;;;;;;;8.80;7.90;;;14.30;99.90;;;;;;4998589;28;20448;-82
2023/09/28 05:35:34;;;;;;;8.60;7.70;;;14.40;99.90;;;;;;4995805;28;21010;-82
2023/09/28 05:38:02;;;;;;;8.07;7.17;;;14.40;99.90;;;;;;4996408;28;20448;-80
2023/09/28 05:40:28;;;;;;;7.50;6.67;;;14.40;99.90;;;;;;4998789;28;20539;-82
2023/09/28 05:42:55;;;;;;;18.50;16.67;;;14.40;99.90;;;;;;4997466;28;20954;-82
2023/09/28 05:45:22;;;;;;;12.10;9.83;;;14.40;99.90;;;;;;4996369;28;20539;-81
2023/09/28 05:47:48;;;;;;;8.10;7.30;;;14.40;99.90;;;;;;4997669;28;20455;-81
2023/09/28 05:50:15;;;;;;;7.87;7.10;;;14.40;99.90;;;;;;4997065;28;20451;-81
2023/09/28 05:52:43;;;;;;;10.30;7.00;;;14.40;99.90;;;;;;4996325;28;20953;-80
2023/09/28 05:55:10;;;;;;;8.63;7.80;;;14.40;99.90;;;;;;4997113;28;20464;-79
2023/09/28 05:57:37;;;;;;;9.40;7.90;;;14.40;99.90;;;;;;4997465;28;20440;-79
2023/09/28 06:00:09;;;;;;;7.70;6.90;;;14.40;99.90;;;;;;4997894;28;20488;-81
2023/09/28 06:02:36;;;;;;;7.73;6.50;;;14.40;99.90;;;;;;4996899;28;20466;-81
2023/09/28 06:05:03;;;;;;;8.97;8.07;;;14.50;99.90;;;;;;4995907;28;20470;-80
2023/09/28 06:07:29;;;;;;;7.43;6.73;;;14.50;99.90;;;;;;4995789;28;20989;-79
2023/09/28 06:09:58;;;;;;;8.13;7.30;;;14.50;99.90;;;;;;4996540;28;20457;-80
2023/09/28 06:12:24;;;;;;;7.20;6.50;;;14.60;99.90;;;;;;4996873;28;20448;-81
2023/09/28 06:22:09;;;;;;;10.33;7.20;;;14.70;99.90;;;;;;5004189;28;20433;-82
2023/09/28 06:48:41;;;;;;;8.23;7.53;;;15.20;99.90;;;;;;4805275;29;20440;-80
2023/09/28 07:13:44;;;;;;;8.30;6.50;;;16.20;99.90;;;;;;4826299;29;20505;-81
2023/09/28 07:35:10;;;;;;;10.33;7.10;;;16.70;99.90;;;;;;4817132;29;20446;-83
2023/09/28 07:38:27;;;;;;;18.17;8.83;;;16.80;99.90;;;;;;4904142;29;20460;-79
2023/09/28 07:41:17;;;;;;;8.90;8.07;;;16.70;99.90;;;;;;4964888;28;20545;-81
2023/09/28 08:01:17;;;;;;;;;;;;;;;;;;;;;
2023/09/28 08:21:30;;;;;;;9.40;7.47;;;19.60;99.90;;;;;;4969380;28;20457;-79
2023/09/28 08:28:00;;;;;;;10.50;7.37;;;19.90;99.90;;;;;;4877742;29;21088;-82
2023/09/28 08:37:46;;;;;;;10.63;7.40;;;20.30;99.90;;;;;;4863671;29;20462;-82
2023/09/28 08:40:36;;;;;;;7.97;6.80;;;20.50;99.90;;;;;;4941928;28;20471;-80
2023/09/28 08:47:30;;;;;;;;;;;;;;;;;;;;;
2023/09/28 08:54:36;;;;;;;12.67;7.60;;;21.70;99.90;;;;;;4910370;29;20446;-79
2023/09/28 09:01:05;;;;;;;6.63;5.93;;;22.10;99.90;;;;;;4926034;28;20448;-80
2023/09/28 09:04:35;;;;;;;6.90;6.00;;;22.50;99.90;;;;;;4943625;29;20463;-79
2023/09/28 09:11:34;;;;;;;;;;;;;;;;;;;;;
2023/09/28 09:14:56;;;;;;;6.40;5.67;;;23.10;99.90;;;;;;4993636;28;20533;-81
2023/09/28 11:41:59;;;;;;;2.90;2.60;;;31.20;77.30;;;;;;5018408;28;20475;-83
2023/09/28 11:44:34;;;;;;;3.47;3.17;;;31.60;76.80;;;;;;5012619;28;20447;-79
2023/09/28 11:47:02;;;;;;;7.13;3.90;;;31.70;76.70;;;;;;5032148;28;20485;-80
2023/09/28 11:49:30;;;;;;;3.30;2.97;;;32.00;75.80;;;;;;5036622;28;20442;-80
2023/09/28 11:52:04;;;;;;;3.30;3.00;;;31.90;74.10;;;;;;5035721;28;20453;-82
2023/09/28 11:54:36;;;;;;;4.80;3.27;;;31.90;72.50;;;;;;5034617;28;20546;-82
2023/09/28 11:57:35;;;;;;;3.13;2.83;;;;;;;;;;5045414;28;20450;-79
2023/09/28 12:00:19;;;;;;;3.50;3.20;;;32.90;68.80;;;;;;5029592;28;20449;-80
2023/09/28 12:03:06;;;;;;;3.50;3.20;;;32.80;69.30;;;;;;5022607;28;20458;-81
2023/09/28 12:05:40;;;;;;;3.53;3.03;;;32.80;68.90;;;;;;5023377;28;20463;-84
2023/09/28 12:08:11;;;;;;;3.70;3.40;;;32.90;68.20;;;;;;5024452;28;20505;-81
2023/09/28 12:10:39;;;;;;;3.23;3.00;;;32.90;68.00;;;;;;5027964;28;20460;-82
2023/09/28 12:13:12;;;;;;;4.00;2.77;;;32.90;67.80;;;;;;5028561;28;20515;-80
2023/09/28 12:15:43;;;;;;;4.07;3.07;;;32.90;66.60;;;;;;5028626;28;20499;-82
2023/09/28 12:18:17;;;;;;;5.40;3.40;;;32.70;66.10;;;;;;5030437;28;20447;-81
2023/09/28 12:20:54;;;;;;;5.20;2.60;;;32.90;65.60;;;;;;5032860;28;20431;-81
2023/09/28 12:23:27;;;;;;;2.70;2.50;;;33.10;65.00;;;;;;5030401;28;20550;-82
2023/09/28 12:26:21;;;;;;;4.70;3.10;;;33.30;62.80;;;;;;5026495;28;20471;-81
2023/09/28 12:28:52;;;;;;;3.20;2.90;;;33.60;63.60;;;;;;5024358;28;20474;-80
2023/09/28 12:31:31;;;;;;;3.63;2.80;;;33.50;62.60;;;;;;5023331;28;20459;-80
2023/09/28 12:34:07;;;;;;;6.70;6.10;;;33.60;62.00;;;;;;5022975;28;20521;-81
2023/09/28 12:36:41;;;;;;;3.33;2.70;;;33.70;61.50;;;;;;5023531;28;20475;-81
2023/09/28 12:39:16;;;;;;;3.00;2.77;;;33.40;61.00;;;;;;5024321;28;20458;-82
2023/09/28 12:41:49;;;;;;;4.50;2.60;;;33.70;60.50;;;;;;5025578;28;20462;-80
2023/09/28 12:44:35;;;;;;;4.40;3.57;;;33.50;59.70;;;;;;5024205;28;20451;-82
2023/09/28 12:47:08;;;;;;;3.30;3.10;;;33.50;60.10;;;;;;5024533;28;20460;-80
2023/09/28 12:49:40;;;;;;;3.10;2.90;;;33.40;59.40;;;;;;5024127;28;20443;-82
2023/09/28 12:52:20;;;;;;;3.13;2.80;;;33.50;59.60;;;;;;5024126;28;20490;-80
2023/09/28 12:54:48;;;;;;;2.87;2.67;;;33.40;59.50;;;;;;5023831;28;21011;-79
2023/09/28 12:57:18;;;;;;;3.83;2.77;;;33.60;59.10;;;;;;5022978;28;20443;-81
2023/09/28 12:59:46;;;;;;;3.37;3.07;;;33.70;58.60;;;;;;5023873;28;20538;-81
2023/09/28 13:02:30;;;;;;;3.00;2.50;;;33.90;58.60;;;;;;5023146;28;20471;-83
2023/09/28 13:05:01;;;;;;;4.10;2.43;;;34.00;57.70;;;;;;5022324;28;20475;-81
2023/09/28 13:07:32;;;;;;;2.83;2.60;;;33.90;56.60;;;;;;5021922;28;20562;-81
2023/09/28 13:10:04;;;;;;;2.90;2.53;;;34.10;56.70;;;;;;5023460;28;20460;-83
2023/09/28 13:12:33;;;;;;;2.67;2.47;;;34.20;55.80;;;;;;5022881;28;20444;-81
2023/09/28 13:15:07;;;;;;;2.83;2.43;;;33.90;55.70;;;;;;5022519;28;20475;-80
2023/09/28 13:17:38;;;;;;;3.20;2.80;;;33.90;55.80;;;;;;5020854;28;20546;-80
2023/09/28 13:20:09;;;;;;;3.20;2.90;;;33.70;55.60;;;;;;5023668;28;20562;-82
2023/09/28 13:22:42;;;;;;;2.97;2.77;;;33.70;55.60;;;;;;5033723;28;20487;-81
2023/09/28 13:25:14;;;;;;;2.93;2.63;;;33.90;55.60;;;;;;5034309;28;20467;-84
2023/09/28 13:27:46;;;;;;;3.13;2.23;;;34.00;55.20;;;;;;5032775;28;20467;-81
2023/09/28 13:30:22;;;;;;;3.00;2.47;;;33.90;55.20;;;;;;5030962;28;20451;-81
2023/09/28 13:32:56;;;;;;;2.67;2.47;;;34.00;54.80;;;;;;5028852;28;20447;-79
2023/09/28 13:35:29;;;;;;;6.20;5.70;;;33.80;54.30;;;;;;5026459;28;20495;-81
2023/09/28 13:38:02;;;;;;;3.03;2.57;;;33.80;54.80;;;;;;5027060;28;20416;-82
2023/09/28 13:40:34;;;;;;;3.50;2.90;;;33.70;54.50;;;;;;5025321;28;20527;-80
2023/09/28 13:43:09;;;;;;;3.50;2.70;;;34.00;54.40;;;;;;5023634;28;20482;-82
2023/09/28 13:45:42;;;;;;;2.70;2.30;;;34.10;53.60;;;;;;5021266;28;20463;-82
2023/09/28 13:48:13;;;;;;;2.80;2.60;;;34.00;53.50;;;;;;5021308;28;20498;-82
2023/09/28 13:50:49;;;;;;;2.53;2.33;;;33.50;54.00;;;;;;5021381;28;20502;-80
2023/09/28 13:53:25;;;;;;;2.50;2.30;;;33.50;54.10;;;;;;5019669;28;20478;-80
2023/09/28 13:55:56;;;;;;;4.47;2.83;;;33.70;53.70;;;;;;5018548;28;20479;-81
2023/09/28 13:58:31;;;;;;;2.10;2.00;;;33.50;54.10;;;;;;5020620;28;20447;-80
2023/09/28 14:00:59;;;;;;;2.70;1.93;;;33.70;53.70;;;;;;5021869;28;20462;-83
2023/09/28 14:03:37;;;;;;;2.33;2.13;;;33.50;54.40;;;;;;5023227;28;20542;-83
2023/09/28 14:06:07;;;;;;;2.47;2.27;;;32.10;54.90;;;;;;5024007;28;20467;-81
2023/09/28 14:08:35;;;;;;;3.70;2.20;;;32.20;55.70;;;;;;5024391;28;20998;-83
2023/09/28 14:11:17;;;;;;;4.03;2.13;;;32.30;55.80;;;;;;5022154;28;20841;-82
2023/09/28 14:13:48;;;;;;;2.40;2.13;;;32.70;55.40;;;;;;5022017;28;20456;-82
2023/09/28 14:16:22;;;;;;;2.50;2.27;;;32.90;55.60;;;;;;5022133;28;20470;-81
2023/09/28 14:18:53;;;;;;;2.20;2.10;;;33.10;55.10;;;;;;5023407;28;20471;-79
2023/09/28 14:21:22;;;;;;;2.03;1.93;;;33.10;55.40;;;;;;5022413;28;20471;-84
2023/09/28 14:23:53;;;;;;;2.53;1.90;;;33.30;54.50;;;;;;5020890;28;20506;-81
2023/09/28 14:26:23;;;;;;;2.33;2.20;;;33.40;54.70;;;;;;5021799;28;20984;-81
2023/09/28 14:31:39;;;;;;;2.43;2.23;;;33.00;55.00;;;;;;5026874;28;20478;-83
2023/09/28 14:34:24;;;;;;;5.03;2.63;;;33.30;54.40;;;;;;5025200;28;20444;-81
2023/09/28 14:36:56;;;;;;;2.63;2.43;;;33.50;54.60;;;;;;5025225;28;20435;-80
2023/09/28 14:39:39;;;;;;;3.70;1.70;;;33.00;54.40;;;;;;5023257;28;20443;-82
2023/09/28 14:42:11;;;;;;;2.80;1.80;;;33.40;54.10;;;;;;5024084;28;20486;-82
2023/09/28 14:44:39;;;;;;;2.40;2.20;;;33.50;54.10;;;;;;5023757;28;20852;-81
2023/09/28 14:47:13;;;;;;;1.97;1.87;;;33.40;53.70;;;;;;5026989;28;20447;-81
2023/09/28 14:49:52;;;;;;;2.37;1.90;;;33.20;54.60;;;;;;5026325;28;20702;-80
2023/09/28 14:52:26;;;;;;;3.20;3.00;;;33.10;54.10;;;;;;5026798;28;20491;-81
2023/09/28 14:54:54;;;;;;;2.00;1.90;;;33.20;54.20;;;;;;5025590;28;20475;-81
2023/09/28 14:57:22;;;;;;;4.40;1.90;;;33.10;53.90;;;;;;5026396;28;20463;-84
2023/09/28 14:59:56;;;;;;;2.77;1.87;;;33.10;54.10;;;;;;5027436;28;20459;-79
2023/09/28 15:02:28;;;;;;;2.60;2.40;;;33.30;54.80;;;;;;5019794;28;20456;-82
2023/09/28 15:05:02;;;;;;;2.63;2.10;;;33.40;54.90;;;;;;5000800;28;20496;-81
2023/09/28 15:07:48;;;;;;;2.43;1.80;;;33.60;53.60;;;;;;5002821;28;20551;-78
2023/09/28 15:10:26;;;;;;;3.53;2.33;;;33.80;53.70;;;;;;5002447;28;20466;-80
2023/09/28 15:12:56;;;;;;;2.90;2.70;;;33.50;54.20;;;;;;5002237;28;20460;-82
2023/09/28 15:15:27;;;;;;;3.30;2.83;;;33.00;54.60;;;;;;5002020;28;20532;-83
2023/09/28 15:17:55;;;;;;;2.50;2.30;;;33.10;54.50;;;;;;5001763;28;20468;-81
2023/09/28 15:20:28;;;;;;;3.30;2.37;;;32.80;54.40;;;;;;5000019;28;20429;-84
2023/09/28 15:22:57;;;;;;;4.00;2.27;;;32.60;55.40;;;;;;5000324;28;20475;-81
2023/09/28 15:25:39;;;;;;;6.20;3.13;;;32.00;56.40;;;;;;4999720;28;20483;-82
2023/09/28 15:28:08;;;;;;;2.70;2.50;;;31.70;57.40;;;;;;4999220;28;20484;-83
2023/09/28 15:30:39;;;;;;;3.60;2.20;;;32.10;57.60;;;;;;4999437;28;20448;-81
2023/09/28 15:33:10;;;;;;;2.47;2.27;;;31.80;57.90;;;;;;5000138;28;20502;-83
2023/09/28 15:35:38;;;;;;;3.20;2.83;;;31.60;59.10;;;;;;5001148;28;20472;-82
2023/09/28 15:38:12;;;;;;;3.77;2.93;;;30.70;61.40;;;;;;5003274;28;20444;-81
2023/09/28 15:40:41;;;;;;;5.83;3.10;;;30.30;63.30;;;;;;5003823;28;20463;-82
2023/09/28 15:43:09;;;;;;;3.97;2.90;;;30.50;63.90;;;;;;5004682;28;20483;-81
2023/09/28 15:45:38;;;;;;;2.90;2.57;;;30.60;63.90;;;;;;5006492;28;20475;-81
2023/09/28 15:48:08;;;;;;;4.17;2.90;;;30.50;64.40;;;;;;5008867;28;20479;-80
2023/09/28 15:50:40;;;;;;;2.77;2.57;;;30.50;65.20;;;;;;5007094;28;20452;-81
2023/09/28 15:53:11;;;;;;;3.53;3.30;;;30.20;65.80;;;;;;5012202;28;20456;-82
2023/09/28 15:55:40;;;;;;;3.40;3.13;;;29.90;66.60;;;;;;5011698;28;20495;-84
2023/09/28 15:58:11;;;;;;;3.13;2.83;;;29.70;66.40;;;;;;5010754;28;20455;-82
2023/09/28 16:00:39;;;;;;;3.97;3.27;;;29.70;67.30;;;;;;5009368;28;20464;-82
2023/09/28 16:03:18;;;;;;;5.53;3.23;;;30.00;67.50;;;;;;5018755;28;20448;-79
2023/09/28 16:05:57;;;;;;;3.47;3.17;;;29.60;67.90;;;;;;5028904;28;20471;-81
2023/09/28 16:08:28;;;;;;;3.97;3.23;;;29.40;68.10;;;;;;5026469;28;20558;-78
2023/09/28 16:10:57;;;;;;;3.60;3.30;;;29.50;68.40;;;;;;5025619;28;20451;-83
2023/09/28 16:13:28;;;;;;;3.60;2.90;;;29.30;68.60;;;;;;5026805;28;20473;-82
2023/09/28 16:15:56;;;;;;;3.60;3.30;;;29.20;68.90;;;;;;5025486;28;20502;-81
2023/09/28 16:18:26;;;;;;;4.23;3.00;;;29.00;69.30;;;;;;5026124;28;20456;-81
2023/09/28 16:21:56;;;;;;;;;;;;;;;;;;;;;
2023/09/28 16:24:25;;;;;;;5.60;2.93;;;28.60;70.40;;;;;;5027702;28;20445;-79
2023/09/28 16:26:57;;;;;;;3.93;3.17;;;28.40;71.40;;;;;;5026317;28;20510;-80
2023/09/28 16:29:25;;;;;;;3.67;2.83;;;28.30;71.90;;;;;;5026043;28;20537;-83
2023/09/28 16:32:15;;;;;;;3.50;3.20;;;28.20;72.60;;;;;;5023838;28;20530;-85
2023/09/28 16:34:43;;;;;;;6.17;3.40;;;28.10;73.00;;;;;;5023469;28;20459;-84
2023/09/28 16:37:13;;;;;;;4.50;3.50;;;28.10;73.30;;;;;;5022993;28;20455;-84
2023/09/28 16:39:44;;;;;;;5.10;3.40;;;27.90;73.60;;;;;;5022769;28;20487;-83
2023/09/28 16:42:14;;;;;;;3.70;3.00;;;27.70;74.10;;;;;;5023970;28;20542;-82
2023/09/28 16:44:42;;;;;;;7.50;3.40;;;27.60;74.50;;;;;;5022844;28;20454;-81
2023/09/28 16:47:15;;;;;;;4.13;3.20;;;27.50;75.00;;;;;;5023193;28;20447;-80
2023/09/28 16:49:52;;;;;;;4.70;3.80;;;27.60;75.30;;;;;;5022771;28;20474;-79
2023/09/28 16:52:22;;;;;;;4.30;3.90;;;27.30;76.10;;;;;;5020842;28;20470;-80
2023/09/28 16:57:47;;;;;;;3.57;3.37;;;27.20;77.50;;;;;;5048640;28;20438;-83
2023/09/28 17:00:24;;;;;;;12.80;4.20;;;26.90;78.30;;;;;;5049544;28;20461;-80
2023/09/28 17:02:57;;;;;;;5.53;4.00;;;26.70;79.00;;;;;;5058536;28;20449;-82
2023/09/28 17:05:32;;;;;;;5.33;3.83;;;26.60;79.90;;;;;;5064792;28;20482;-82
2023/09/28 17:08:09;;;;;;;5.17;4.17;;;26.50;80.40;;;;;;5055007;28;20477;-84
2023/09/28 17:10:47;;;;;;;4.00;3.67;;;26.40;80.60;;;;;;5050773;28;20446;-80
2023/09/28 17:13:17;;;;;;;5.20;3.80;;;26.20;81.70;;;;;;5050990;28;20449;-80
2023/09/28 17:15:48;;;;;;;5.63;4.60;;;26.10;82.20;;;;;;5053212;28;20500;-81
2023/09/28 17:18:17;;;;;;;6.57;3.97;;;25.90;83.00;;;;;;5054483;28;20446;-85
2023/09/28 17:21:50;;;;;;;;;;;;;;;;;;;;;
2023/09/28 17:24:26;;;;;;;5.63;4.40;;;25.50;84.70;;;;;;5028453;28;20446;-83
2023/09/28 17:26:56;;;;;;;5.60;3.50;;;25.60;85.90;;;;;;5067614;28;20449;-81
2023/09/28 17:29:26;;;;;;;43.37;39.57;;;25.50;86.60;;;;;;5049765;28;20509;-81
2023/09/28 17:32:07;;;;;;;6.60;6.03;;;25.50;87.40;;;;;;5061705;28;20430;-82
2023/09/28 17:34:45;;;;;;;5.40;4.20;;;25.10;88.50;;;;;;5048445;28;20451;-82
2023/09/28 17:37:23;;;;;;;5.50;3.67;;;25.00;89.40;;;;;;5053356;28;20442;-80
2023/09/28 17:40:09;;;;;;;4.40;4.00;;;24.90;90.00;;;;;;5053004;28;20477;-81
2023/09/28 17:42:40;;;;;;;6.10;5.00;;;24.50;90.30;;;;;;5050544;28;20481;-81
2023/09/28 17:45:14;;;;;;;9.27;4.37;;;24.60;90.50;;;;;;5049015;28;20549;-81
2023/09/28 17:47:52;;;;;;;5.73;4.10;;;24.50;91.00;;;;;;5048987;28;20558;-83
2023/09/28 17:50:28;;;;;;;4.80;4.37;;;24.30;91.40;;;;;;5047657;28;20474;-84
2023/09/28 17:53:15;;;;;;;6.50;4.40;;;24.30;91.80;;;;;;5047916;28;20500;-80
2023/09/28 17:55:48;;;;;;;8.30;4.50;;;24.20;92.10;;;;;;5047983;28;20515;-82
2023/09/28 17:58:30;;;;;;;4.50;4.10;;;24.10;92.50;;;;;;5047966;28;20481;-83
2023/09/28 18:01:13;;;;;;;9.50;4.70;;;24.00;92.80;;;;;;5047648;28;20507;-80
2023/09/28 18:03:43;;;;;;;6.93;6.23;;;23.90;93.10;;;;;;5045020;28;20446;-80
2023/09/28 18:10:04;;;;;;;5.93;5.33;;;23.90;94.20;;;;;;4989233;28;21012;-84
2023/09/28 18:12:41;;;;;;;5.80;5.17;;;23.70;94.70;;;;;;5033133;28;20944;-80
2023/09/28 18:15:20;;;;;;;6.80;6.20;;;23.50;95.20;;;;;;5050115;28;20501;-83
2023/09/28 18:18:33;;;;;;;6.20;5.60;;;23.50;95.60;;;;;;5051218;28;20434;-81
2023/09/28 18:21:57;;;;;;;7.40;5.90;;;23.40;96.30;;;;;;5052225;28;20454;-82
2023/09/28 18:24:43;;;;;;;7.77;6.13;;;23.30;96.70;;;;;;4961115;28;20450;-81
2023/09/28 18:27:19;;;;;;;7.20;6.10;;;23.20;97.50;;;;;;4990163;28;20456;-80
2023/09/28 18:29:49;;;;;;;8.73;6.40;;;23.10;98.00;;;;;;5049617;28;20484;-81
2023/09/28 18:32:19;;;;;;;8.60;7.17;;;23.00;98.20;;;;;;5049141;28;20466;-82
2023/09/28 18:35:00;;;;;;;7.40;6.70;;;22.90;98.40;;;;;;5047083;28;20474;-80
2023/09/28 18:37:34;;;;;;;9.67;6.70;;;22.90;99.10;;;;;;5047338;28;20454;-82
2023/09/28 18:40:07;;;;;;;9.27;7.10;;;22.80;99.50;;;;;;5046444;28;20514;-82
2023/09/28 18:42:38;;;;;;;9.30;6.30;;;22.70;99.90;;;;;;5047742;28;20470;-80
2023/09/28 18:45:11;;;;;;;11.50;6.50;;;22.70;99.90;;;;;;5050370;28;20471;-80
2023/09/28 18:47:38;;;;;;;6.97;5.97;;;22.60;99.90;;;;;;5047112;28;20462;-77
2023/09/28 18:50:09;;;;;;;6.90;6.20;;;22.50;99.90;;;;;;5048690;28;20500;-81
2023/09/28 18:52:38;;;;;;;7.10;6.43;;;22.40;99.90;;;;;;5043088;28;20527;-80
2023/09/28 18:55:10;;;;;;;6.90;6.20;;;22.30;99.90;;;;;;5049237;28;20490;-81
2023/09/28 18:57:39;;;;;;;5.87;5.37;;;22.30;99.90;;;;;;5049899;28;20419;-82
2023/09/28 19:00:13;;;;;;;11.63;6.40;;;22.20;99.90;;;;;;5050210;28;20458;-83
2023/09/28 19:02:45;;;;;;;7.37;6.30;;;22.20;99.90;;;;;;5059422;28;20445;-84
2023/09/28 19:05:13;;;;;;;8.37;6.67;;;22.10;99.90;;;;;;5071440;28;20473;-82
2023/09/28 19:07:40;;;;;;;8.00;7.10;;;22.00;99.90;;;;;;5071304;28;20477;-82
2023/09/28 19:10:08;;;;;;;8.33;6.40;;;22.00;99.90;;;;;;5071681;28;20465;-83
2023/09/28 19:12:35;;;;;;;8.40;6.70;;;21.90;99.90;;;;;;5069068;28;20449;-81
2023/09/28 19:15:11;;;;;;;9.33;6.23;;;21.80;99.90;;;;;;5070430;28;20993;-81
2023/09/28 19:17:39;;;;;;;7.47;6.60;;;21.70;99.90;;;;;;5069526;28;20445;-81
2023/09/28 19:20:16;;;;;;;12.03;7.33;;;21.50;99.90;;;;;;5069295;28;20446;-80
2023/09/28 19:22:43;;;;;;;9.07;8.13;;;21.50;99.90;;;;;;5069837;28;20444;-83
2023/09/28 19:25:15;;;;;;;8.53;6.83;;;21.40;99.90;;;;;;5069356;28;20474;-82
2023/09/28 19:27:50;;;;;;;7.23;6.53;;;21.40;99.90;;;;;;5068816;28;20452;-82
2023/09/28 19:30:30;;;;;;;9.83;7.33;;;21.30;99.90;;;;;;5072704;28;20465;-83
2023/09/28 19:33:01;;;;;;;7.43;6.53;;;21.20;99.90;;;;;;5070075;28;20521;-81
2023/09/28 19:35:28;;;;;;;10.43;6.77;;;21.20;99.90;;;;;;5069577;28;20461;-81
2023/09/28 19:38:21;;;;;;;;;;;;;;;;;;;;;
2023/09/28 19:40:59;;;;;;;6.90;6.30;;;21.10;99.90;;;;;;5069112;28;20452;-81
2023/09/28 19:43:40;;;;;;;7.00;6.30;;;21.10;99.90;;;;;;5070550;28;20441;-78
2023/09/28 19:46:21;;;;;;;7.83;6.73;;;20.90;99.90;;;;;;5071257;28;20462;-80
2023/09/28 19:48:50;;;;;;;7.37;6.07;;;20.80;99.90;;;;;;5071825;28;20457;-80
2023/09/28 19:51:20;;;;;;;7.23;6.20;;;20.70;99.90;;;;;;5073646;28;20519;-80
2023/09/28 19:53:51;;;;;;;8.23;7.33;;;20.60;99.90;;;;;;5076281;28;20438;-80
2023/09/28 19:56:26;;;;;;;6.67;6.00;;;20.50;99.90;;;;;;5076432;28;20512;-79
2023/09/28 19:59:10;;;;;;;6.03;5.47;;;20.40;99.90;;;;;;5076059;28;20513;-81
2023/09/28 20:01:43;;;;;;;8.40;6.20;;;20.20;99.90;;;;;;5069466;28;20445;-81
2023/09/28 20:04:18;;;;;;;6.27;5.73;;;20.40;99.90;;;;;;5064983;28;20801;-81
2023/09/28 20:06:51;;;;;;;7.80;6.50;;;20.40;99.90;;;;;;5063355;28;20464;-82
2023/09/28 20:09:24;;;;;;;8.03;5.80;;;20.30;99.90;;;;;;5064758;28;20448;-80
2023/09/28 20:11:51;;;;;;;8.20;6.50;;;20.30;99.90;;;;;;5062650;28;20433;-79
2023/09/28 20:14:22;;;;;;;8.00;6.43;;;20.20;99.90;;;;;;5060944;28;20897;-80
2023/09/28 20:16:57;;;;;;;8.87;7.20;;;20.20;99.90;;;;;;5061615;28;20549;-82
2023/09/28 20:19:33;;;;;;;7.57;6.60;;;20.20;99.90;;;;;;5062361;28;20445;-80
2023/09/28 20:22:08;;;;;;;7.97;6.30;;;20.10;99.90;;;;;;5062153;28;20520;-79
2023/09/28 20:24:36;;;;;;;7.10;6.40;;;20.00;99.90;;;;;;5062114;28;20476;-81
2023/09/28 20:27:16;;;;;;;8.67;6.47;;;19.90;99.90;;;;;;5065164;28;20445;-81
2023/09/28 20:30:20;;;;;;;6.40;5.70;;;19.90;99.90;;;;;;5069759;28;20907;-83
2023/09/28 20:32:52;;;;;;;6.77;6.10;;;19.90;99.90;;;;;;5066896;28;20458;-81
2023/09/28 20:35:23;;;;;;;5.73;5.23;;;20.10;99.90;;;;;;5074220;28;20472;-80
2023/09/28 20:37:57;;;;;;;6.40;5.73;;;19.80;99.90;;;;;;5075923;28;20449;-81
2023/09/28 20:40:43;;;;;;;8.37;6.10;;;19.80;99.90;;;;;;5075873;28;20449;-80
2023/09/28 20:43:19;;;;;;;6.93;6.03;;;19.80;99.90;;;;;;5075123;28;20513;-79
2023/09/28 20:46:05;;;;;;;6.33;5.77;;;19.70;99.90;;;;;;5071691;28;20545;-79
2023/09/28 20:48:42;;;;;;;8.47;6.60;;;19.70;99.90;;;;;;5071611;28;20458;-79
2023/09/28 20:54:33;;;;;;;8.00;6.20;;;19.70;99.90;;;;;;5062555;28;20511;-80
2023/09/28 20:57:19;;;;;;;7.43;6.40;;;19.50;99.90;;;;;;5065158;28;20846;-81
2023/09/28 21:00:12;;;;;;;6.50;5.90;;;19.10;99.90;;;;;;5063783;28;20438;-80
2023/09/28 21:02:58;;;;;;;7.13;5.70;;;19.00;99.90;;;;;;5057350;28;20504;-81
2023/09/28 21:06:03;;;;;;;;;;;;;;;;;;;;;
2023/09/28 21:08:51;;;;;;;7.20;6.50;;;18.90;99.90;;;;;;5043278;28;20429;-80
2023/09/28 21:11:53;;;;;;;14.93;6.40;;;19.10;99.90;;;;;;5043387;28;20493;-81
2023/09/28 21:17:14;;;;;;;8.10;5.83;;;19.00;99.90;;;;;;5025950;28;20502;-81
2023/09/28 21:19:52;;;;;;;8.13;6.10;;;18.90;99.90;;;;;;5043078;28;20450;-80
2023/09/28 21:22:41;;;;;;;6.50;5.57;;;18.90;99.90;;;;;;5041862;28;20457;-82
2023/09/28 21:25:43;;;;;;;10.70;9.80;;;18.90;99.90;;;;;;5041713;28;20473;-81
2023/09/28 21:34:35;;;;;;;7.53;6.00;;;18.60;99.90;;;;;;5045552;28;20438;-80
2023/09/28 21:37:34;;;;;;;7.50;6.47;;;18.80;99.90;;;;;;5050346;28;21029;-80